Time;durP1;ratioP1;P1;durP2;ratioP2;P2;SDS_P1;SDS_P2;PMS_P1;PMS_P2;Temp;Humidity;BMP_temperature;BMP_pressure;BME280_temperature;BME280_humidity;BME280_pressure;Samples;Min_cycle;Max_cycle;Signal;HPM_P1;HPM_P2
2023/06/09 00:02:18;;;;;;;6.67;6.07;;;25.00;52.50;;;;;;6185511;23;20773;-69
2023/06/09 00:04:44;;;;;;;6.20;5.70;;;25.00;52.50;;;;;;6159140;23;20845;-69
2023/06/09 00:07:09;;;;;;;5.57;5.17;;;25.00;52.40;;;;;;6185633;23;20438;-69
2023/06/09 00:09:35;;;;;;;6.10;5.50;;;25.00;52.50;;;;;;6185169;23;20869;-69
2023/06/09 00:12:02;;;;;;;6.33;5.83;;;25.00;52.40;;;;;;6185112;23;20295;-67
2023/06/09 00:14:28;;;;;;;7.00;6.43;;;25.00;52.50;;;;;;6185223;23;20395;-69
2023/06/09 00:16:55;;;;;;;6.13;5.57;;;25.00;52.50;;;;;;6185264;23;20461;-69
2023/06/09 00:19:22;;;;;;;5.60;5.20;;;25.00;52.40;;;;;;6185108;23;20152;-69
2023/06/09 00:21:51;;;;;;;6.00;5.40;;;25.00;52.40;;;;;;6185127;23;20372;-69
2023/06/09 00:24:21;;;;;;;5.40;4.90;;;25.00;52.40;;;;;;6185238;23;20395;-68
2023/06/09 00:26:51;;;;;;;5.83;5.43;;;25.00;52.40;;;;;;6185408;23;20423;-68
2023/06/09 00:29:18;;;;;;;5.97;5.37;;;25.00;52.40;;;;;;6185399;23;20382;-69
2023/06/09 00:31:44;;;;;;;5.13;4.73;;;25.00;52.50;;;;;;6185129;23;20363;-69
2023/06/09 00:34:10;;;;;;;5.30;4.80;;;25.00;52.50;;;;;;6185006;23;20391;-69
2023/06/09 00:36:36;;;;;;;7.17;6.53;;;25.00;52.50;;;;;;6185171;23;20718;-68
2023/06/09 00:39:02;;;;;;;5.50;5.00;;;25.00;52.50;;;;;;6185366;23;20474;-68
2023/06/09 00:41:28;;;;;;;5.43;5.03;;;25.00;52.50;;;;;;6185137;23;20148;-68
2023/06/09 00:43:55;;;;;;;5.63;5.03;;;25.00;52.50;;;;;;6184930;23;20430;-67
2023/06/09 00:46:22;;;;;;;5.57;5.07;;;25.00;53.10;;;;;;6184930;23;20591;-68
2023/06/09 00:48:48;;;;;;;5.33;4.90;;;25.00;52.50;;;;;;6185032;23;20793;-67
2023/06/09 00:51:14;;;;;;;5.43;4.93;;;25.00;52.60;;;;;;6184945;23;20716;-68
2023/06/09 00:53:40;;;;;;;6.00;5.50;;;25.00;52.50;;;;;;6184813;23;20375;-68
2023/06/09 00:56:06;;;;;;;5.40;5.00;;;25.00;52.60;;;;;;6184851;23;20486;-68
2023/06/09 00:58:32;;;;;;;6.20;5.70;;;25.00;52.60;;;;;;6184776;23;20388;-69
2023/06/09 01:00:59;;;;;;;5.77;5.27;;;25.00;52.60;;;;;;6184799;23;20156;-68
2023/06/09 01:03:26;;;;;;;5.07;4.67;;;25.00;52.50;;;;;;6184723;23;20418;-69
2023/06/09 01:05:59;;;;;;;5.80;5.30;;;25.00;52.60;;;;;;6184612;23;20395;-69
2023/06/09 01:08:34;;;;;;;5.13;4.73;;;25.00;52.60;;;;;;6184606;23;21001;-69
2023/06/09 01:11:19;;;;;;;5.77;5.27;;;24.90;52.50;;;;;;6184766;23;20358;-68
2023/06/09 01:14:08;;;;;;;5.63;5.23;;;25.00;52.60;;;;;;6184439;23;20360;-67
2023/06/09 01:16:52;;;;;;;6.00;5.50;;;24.90;52.50;;;;;;6184827;23;20379;-69
2023/06/09 01:19:33;;;;;;;5.83;5.30;;;24.90;52.60;;;;;;6184690;23;20385;-67
2023/06/09 01:22:03;;;;;;;5.20;4.70;;;24.90;52.60;;;;;;6184745;23;20700;-69
2023/06/09 01:24:53;;;;;;;5.00;4.60;;;24.90;52.60;;;;;;6184943;23;20414;-67
2023/06/09 01:27:21;;;;;;;5.93;5.43;;;24.90;52.60;;;;;;6184622;23;20890;-69
2023/06/09 01:29:47;;;;;;;6.57;5.97;;;24.90;52.70;;;;;;6184593;23;20450;-68
2023/06/09 01:32:15;;;;;;;5.50;5.10;;;24.90;52.70;;;;;;6184509;23;20418;-68
2023/06/09 01:34:42;;;;;;;5.40;5.00;;;24.90;52.60;;;;;;6184545;23;20398;-69
2023/06/09 01:37:08;;;;;;;5.90;5.40;;;24.90;52.70;;;;;;6158068;23;20770;-69
2023/06/09 01:39:34;;;;;;;5.83;5.40;;;24.90;52.60;;;;;;6184377;23;20367;-67
2023/06/09 01:42:00;;;;;;;6.03;5.53;;;24.90;52.60;;;;;;6184681;23;20502;-68
2023/06/09 01:44:25;;;;;;;5.87;5.47;;;24.90;52.60;;;;;;6184286;23;20175;-68
2023/06/09 01:46:51;;;;;;;5.63;5.20;;;24.90;52.70;;;;;;6184667;23;20190;-69
2023/06/09 01:49:56;;;;;;;5.90;5.33;;;24.90;52.60;;;;;;6184398;23;20152;-69
2023/06/09 01:52:38;;;;;;;5.63;4.93;;;24.90;52.60;;;;;;6184449;23;20190;-69
2023/06/09 01:55:12;;;;;;;5.50;5.10;;;24.90;52.70;;;;;;6184290;23;20479;-68
2023/06/09 01:57:48;;;;;;;5.37;4.90;;;24.90;52.70;;;;;;6184384;23;20371;-69
2023/06/09 02:00:14;;;;;;;4.90;4.50;;;24.90;52.70;;;;;;6184394;23;20450;-70
2023/06/09 02:02:41;;;;;;;5.33;4.93;;;24.90;52.70;;;;;;6184086;23;20410;-69
2023/06/09 02:05:10;;;;;;;5.47;4.93;;;24.90;53.30;;;;;;6184146;23;20415;-69
2023/06/09 02:07:36;;;;;;;6.20;5.60;;;24.90;52.70;;;;;;6184189;23;20525;-68
2023/06/09 02:10:02;;;;;;;5.40;5.00;;;24.90;52.70;;;;;;6184201;23;20367;-69
2023/06/09 02:12:34;;;;;;;5.23;4.83;;;24.90;52.70;;;;;;6184136;23;20429;-70
2023/06/09 02:15:01;;;;;;;5.20;4.80;;;24.90;52.70;;;;;;6184048;23;20387;-70
2023/06/09 02:17:27;;;;;;;5.33;4.93;;;24.90;53.20;;;;;;6184131;23;20450;-70
2023/06/09 02:19:54;;;;;;;5.80;5.30;;;24.90;52.70;;;;;;6184416;23;20376;-68
2023/06/09 02:22:20;;;;;;;6.13;5.53;;;24.90;52.70;;;;;;6184150;23;20706;-68
2023/06/09 02:24:45;;;;;;;5.87;5.37;;;24.90;52.70;;;;;;6184369;23;20390;-69
2023/06/09 02:27:11;;;;;;;5.90;5.40;;;24.90;52.70;;;;;;6184035;23;20512;-69
2023/06/09 02:29:36;;;;;;;6.10;5.60;;;24.90;52.70;;;;;;6157741;23;20226;-69
2023/06/09 02:32:02;;;;;;;5.90;5.40;;;24.90;52.70;;;;;;6184037;23;20148;-70
2023/06/09 02:34:30;;;;;;;5.60;5.20;;;24.90;52.70;;;;;;6185443;23;20171;-69
2023/06/09 02:36:57;;;;;;;5.33;4.93;;;24.90;52.70;;;;;;6186548;23;20187;-68
2023/06/09 02:39:23;;;;;;;5.63;5.23;;;24.90;52.70;;;;;;6186242;23;20750;-68
2023/06/09 02:41:49;;;;;;;5.37;4.97;;;24.90;52.70;;;;;;6186252;23;20371;-69
2023/06/09 02:44:15;;;;;;;5.87;5.47;;;24.90;52.70;;;;;;6186050;23;20477;-67
2023/06/09 02:46:42;;;;;;;5.40;4.90;;;24.90;52.70;;;;;;6185907;23;20151;-68
2023/06/09 02:49:08;;;;;;;5.30;4.90;;;24.90;52.70;;;;;;6186147;23;20371;-68
2023/06/09 02:51:33;;;;;;;5.93;5.43;;;24.90;52.70;;;;;;6159653;23;20382;-70
2023/06/09 02:53:59;;;;;;;5.57;5.13;;;24.80;52.60;;;;;;6186108;23;20383;-68
2023/06/09 02:56:26;;;;;;;5.33;4.93;;;24.90;52.70;;;;;;6185922;23;20167;-68
2023/06/09 02:58:53;;;;;;;5.70;5.10;;;24.80;52.70;;;;;;6185941;23;20489;-66
2023/06/09 03:01:19;;;;;;;5.50;5.00;;;24.80;52.60;;;;;;6186261;23;20379;-69
2023/06/09 03:03:45;;;;;;;5.93;5.43;;;24.80;52.60;;;;;;6186201;23;20381;-69
2023/06/09 03:06:13;;;;;;;6.73;6.23;;;24.90;52.80;;;;;;6185870;23;20386;-69
2023/06/09 03:08:39;;;;;;;5.87;5.40;;;24.80;52.60;;;;;;6186271;23;20434;-69
2023/06/09 03:11:05;;;;;;;5.33;5.00;;;24.80;52.70;;;;;;6185996;23;20386;-69
2023/06/09 03:13:31;;;;;;;5.73;5.33;;;24.80;52.60;;;;;;6185941;23;20379;-69
2023/06/09 03:15:57;;;;;;;5.73;5.23;;;24.80;52.60;;;;;;6185631;23;20218;-68
2023/06/09 03:18:23;;;;;;;5.70;5.20;;;24.80;52.70;;;;;;6185842;23;20155;-68
2023/06/09 03:20:50;;;;;;;6.30;5.77;;;24.80;52.90;;;;;;6159287;23;20209;-69
2023/06/09 03:23:17;;;;;;;6.00;5.53;;;24.90;52.80;;;;;;6185722;23;20181;-68
2023/06/09 03:25:42;;;;;;;5.70;5.30;;;24.80;52.70;;;;;;6185664;23;20481;-69
2023/06/09 03:28:08;;;;;;;5.80;5.30;;;24.80;52.70;;;;;;6185591;23;20914;-68
2023/06/09 03:30:34;;;;;;;5.70;5.30;;;24.80;52.70;;;;;;6185882;23;20230;-69
2023/06/09 03:33:00;;;;;;;5.77;5.27;;;24.80;52.70;;;;;;6185921;23;20148;-69
2023/06/09 03:35:26;;;;;;;5.40;5.00;;;24.80;52.70;;;;;;6159358;23;20406;-68
2023/06/09 03:37:51;;;;;;;6.07;5.57;;;24.80;52.70;;;;;;6185628;23;20406;-69
2023/06/09 03:40:17;;;;;;;6.73;6.13;;;24.80;53.30;;;;;;6185605;23;20156;-68
2023/06/09 03:42:43;;;;;;;6.13;5.63;;;24.80;52.70;;;;;;6185616;23;20197;-69
2023/06/09 03:45:09;;;;;;;6.47;5.83;;;24.80;52.70;;;;;;6185064;23;20826;-69
2023/06/09 03:47:34;;;;;;;5.50;5.10;;;24.80;52.70;;;;;;6184594;23;20182;-69
2023/06/09 03:50:00;;;;;;;5.63;5.13;;;24.80;52.70;;;;;;6159120;23;20244;-68
2023/06/09 03:52:30;;;;;;;5.53;5.13;;;24.80;52.70;;;;;;6185412;23;20156;-69
2023/06/09 03:54:55;;;;;;;6.43;5.93;;;24.80;52.70;;;;;;6184778;23;20168;-70
2023/06/09 03:57:21;;;;;;;6.43;5.07;;;24.80;52.80;;;;;;6185278;23;20791;-68
2023/06/09 03:59:47;;;;;;;5.60;5.10;;;24.80;52.80;;;;;;6185390;23;20152;-68
2023/06/09 04:02:12;;;;;;;5.23;4.83;;;24.80;52.80;;;;;;6185289;23;20147;-68
2023/06/09 04:04:38;;;;;;;5.90;5.50;;;24.80;52.80;;;;;;6185272;23;20176;-69
2023/06/09 04:07:05;;;;;;;5.43;4.93;;;24.80;52.80;;;;;;6185206;23;20179;-69
2023/06/09 04:09:32;;;;;;;5.67;5.17;;;24.80;52.80;;;;;;6185278;23;20429;-69
2023/06/09 04:11:58;;;;;;;5.63;5.13;;;24.80;52.80;;;;;;6185646;23;20374;-69
2023/06/09 04:14:23;;;;;;;6.17;5.67;;;24.80;52.80;;;;;;6185313;23;20415;-69
2023/06/09 04:16:50;;;;;;;6.23;5.73;;;24.80;52.80;;;;;;6185190;23;20155;-68
2023/06/09 04:19:15;;;;;;;5.27;4.93;;;24.80;52.70;;;;;;6185340;23;20148;-68
2023/06/09 04:21:42;;;;;;;6.57;6.07;;;24.80;52.60;;;;;;6185283;23;20390;-69
2023/06/09 04:24:08;;;;;;;7.90;7.10;;;24.80;52.60;;;;;;6185291;23;20172;-68
2023/06/09 04:26:38;;;;;;;7.10;6.50;;;24.80;52.60;;;;;;6185407;23;20375;-69
2023/06/09 04:29:04;;;;;;;6.27;5.77;;;24.80;52.60;;;;;;6185097;23;20167;-69
2023/06/09 04:31:33;;;;;;;6.77;6.17;;;24.80;52.60;;;;;;6185162;23;20382;-69
2023/06/09 04:34:10;;;;;;;6.57;6.07;;;24.80;52.60;;;;;;6158564;23;20167;-69
2023/06/09 04:36:39;;;;;;;6.43;5.67;;;24.80;52.60;;;;;;6185096;23;20359;-70
2023/06/09 04:39:08;;;;;;;6.73;6.20;;;24.80;52.60;;;;;;6185111;23;20546;-69
2023/06/09 04:41:34;;;;;;;7.30;5.60;;;24.80;52.60;;;;;;6158544;23;20391;-68
2023/06/09 04:44:05;;;;;;;5.70;5.20;;;24.80;53.30;;;;;;6184786;23;20697;-69
2023/06/09 04:46:37;;;;;;;5.63;5.17;;;24.80;52.70;;;;;;6184956;23;20456;-70
2023/06/09 04:49:08;;;;;;;6.23;5.63;;;24.80;52.70;;;;;;6185146;23;20355;-69
2023/06/09 04:51:41;;;;;;;6.20;5.70;;;24.80;52.70;;;;;;6185262;23;20355;-69
2023/06/09 04:54:09;;;;;;;5.63;5.20;;;24.80;52.80;;;;;;6183927;23;20945;-68
2023/06/09 04:56:36;;;;;;;5.63;5.13;;;24.80;52.80;;;;;;6184298;23;20478;-69
2023/06/09 04:59:02;;;;;;;5.57;5.17;;;24.80;52.80;;;;;;6158463;23;20413;-69
2023/06/09 05:01:29;;;;;;;6.03;5.53;;;24.80;52.80;;;;;;6185240;23;20371;-68
2023/06/09 05:03:56;;;;;;;4.87;4.47;;;24.80;52.80;;;;;;6185351;23;20367;-68
2023/06/09 05:06:22;;;;;;;6.23;5.73;;;24.80;52.80;;;;;;6184568;23;20402;-69
2023/06/09 05:08:50;;;;;;;5.37;4.80;;;24.80;52.80;;;;;;6184733;23;20427;-69
2023/06/09 05:11:16;;;;;;;6.27;5.77;;;24.80;52.80;;;;;;6184852;23;20171;-68
2023/06/09 05:13:41;;;;;;;5.10;4.70;;;24.80;52.80;;;;;;6184769;23;20376;-68
2023/06/09 05:16:07;;;;;;;6.03;5.53;;;24.80;52.80;;;;;;6184747;23;20516;-69
2023/06/09 05:18:32;;;;;;;5.83;5.27;;;24.80;52.90;;;;;;6184633;23;20152;-68
2023/06/09 05:20:58;;;;;;;5.97;5.47;;;24.80;52.80;;;;;;6184583;23;20152;-67
2023/06/09 05:23:24;;;;;;;6.03;5.53;;;24.80;52.80;;;;;;6184596;23;20227;-68
2023/06/09 05:25:50;;;;;;;6.00;5.50;;;24.80;52.80;;;;;;6184583;23;20195;-69
2023/06/09 05:28:15;;;;;;;6.57;6.00;;;24.80;52.90;;;;;;6183370;23;20182;-69
2023/06/09 05:30:41;;;;;;;6.17;5.67;;;24.70;52.80;;;;;;6184532;23;20371;-69
2023/06/09 05:33:07;;;;;;;6.80;5.87;;;24.80;52.80;;;;;;6184942;23;20155;-69
2023/06/09 05:35:33;;;;;;;5.23;4.83;;;24.80;52.80;;;;;;6184841;23;20179;-69
2023/06/09 05:37:58;;;;;;;5.70;5.20;;;24.70;52.70;;;;;;6184735;23;20603;-69
2023/06/09 05:40:24;;;;;;;5.93;5.40;;;24.70;52.80;;;;;;6184652;23;20634;-68
2023/06/09 05:42:49;;;;;;;6.20;5.60;;;24.70;52.70;;;;;;6184315;23;20257;-69
2023/06/09 05:45:15;;;;;;;5.63;5.13;;;24.80;52.80;;;;;;6184361;23;20172;-68
2023/06/09 05:47:41;;;;;;;5.70;5.23;;;24.70;52.70;;;;;;6184403;23;20631;-69
2023/06/09 05:50:07;;;;;;;4.90;4.50;;;24.70;52.70;;;;;;6184564;23;20274;-69
2023/06/09 05:52:32;;;;;;;5.80;5.30;;;24.70;52.70;;;;;;6184580;23;20151;-69
2023/06/09 05:55:00;;;;;;;5.83;5.40;;;24.80;52.90;;;;;;6184217;23;20407;-68
2023/06/09 05:57:29;;;;;;;5.80;5.30;;;24.80;52.80;;;;;;6184291;23;20151;-68
2023/06/09 05:59:56;;;;;;;5.97;5.37;;;24.70;52.70;;;;;;6184243;23;20375;-68
2023/06/09 06:02:23;;;;;;;5.73;5.30;;;24.80;52.80;;;;;;6184452;23;20367;-69
2023/06/09 06:04:48;;;;;;;5.40;4.90;;;24.80;52.80;;;;;;6184112;23;20399;-69
2023/06/09 06:07:15;;;;;;;5.70;5.20;;;24.70;52.70;;;;;;6184349;23;20422;-68
2023/06/09 06:09:40;;;;;;;5.57;5.17;;;24.70;52.70;;;;;;6184180;23;20144;-69
2023/06/09 06:12:06;;;;;;;5.73;5.33;;;24.70;52.70;;;;;;6184153;23;20382;-69
2023/06/09 06:14:32;;;;;;;5.53;5.13;;;24.70;52.70;;;;;;6184081;23;20251;-68
2023/06/09 06:16:57;;;;;;;5.53;5.13;;;24.80;52.80;;;;;;6184135;23;20429;-69
2023/06/09 06:19:23;;;;;;;6.10;5.60;;;24.70;53.30;;;;;;6184045;23;20157;-69
2023/06/09 06:21:49;;;;;;;4.83;4.43;;;24.70;52.70;;;;;;6184105;23;20591;-68
2023/06/09 06:24:15;;;;;;;6.20;5.40;;;24.70;52.80;;;;;;6183857;23;20199;-68
2023/06/09 06:26:41;;;;;;;5.40;5.00;;;24.70;52.80;;;;;;6183807;23;20410;-68
2023/06/09 06:29:07;;;;;;;6.57;5.97;;;24.80;52.90;;;;;;6184059;23;20147;-69
2023/06/09 06:31:32;;;;;;;5.53;5.13;;;24.70;52.80;;;;;;6184396;23;20855;-68
2023/06/09 06:33:58;;;;;;;5.07;4.70;;;24.70;52.80;;;;;;6157412;23;20626;-68
2023/06/09 06:36:26;;;;;;;5.53;5.03;;;24.70;52.80;;;;;;6184035;23;20152;-68
2023/06/09 06:38:51;;;;;;;6.10;5.60;;;24.70;52.90;;;;;;6183986;23;20386;-68
2023/06/09 06:41:17;;;;;;;5.50;5.10;;;24.70;52.90;;;;;;6183684;23;20961;-69
2023/06/09 06:43:43;;;;;;;5.60;5.00;;;24.80;53.00;;;;;;6183026;23;20156;-67
2023/06/09 06:46:11;;;;;;;6.00;5.50;;;24.70;52.90;;;;;;6183285;23;20596;-67
2023/06/09 06:48:38;;;;;;;8.77;5.83;;;24.80;53.00;;;;;;6183910;23;20522;-68
2023/06/09 06:51:06;;;;;;;8.40;5.97;;;24.70;52.90;;;;;;6183810;23;20857;-68
2023/06/09 06:53:33;;;;;;;5.20;4.80;;;24.80;53.00;;;;;;6183925;23;20375;-68
2023/06/09 06:55:59;;;;;;;5.90;5.30;;;24.80;53.00;;;;;;6180945;23;20419;-68
2023/06/09 06:58:27;;;;;;;5.23;4.83;;;24.80;52.90;;;;;;6181807;23;20375;-68
2023/06/09 07:00:55;;;;;;;5.57;5.13;;;24.80;52.90;;;;;;6156631;23;20168;-67
2023/06/09 07:03:20;;;;;;;5.37;4.97;;;24.80;52.80;;;;;;6154367;23;20913;-68
2023/06/09 07:05:46;;;;;;;6.37;5.77;;;24.80;52.80;;;;;;6183273;23;20445;-69
2023/06/09 07:08:11;;;;;;;5.97;5.47;;;24.80;52.80;;;;;;6183586;23;20269;-67
2023/06/09 07:10:37;;;;;;;6.70;6.10;;;24.80;52.70;;;;;;6183636;23;20148;-67
2023/06/09 07:13:03;;;;;;;7.57;5.70;;;24.90;52.80;;;;;;6183609;23;20171;-68
2023/06/09 07:15:28;;;;;;;6.13;5.50;;;24.90;52.80;;;;;;6182061;23;20191;-68
2023/06/09 07:17:54;;;;;;;6.23;5.73;;;24.90;52.80;;;;;;6157151;23;20207;-68
2023/06/09 07:20:20;;;;;;;7.90;6.03;;;24.90;52.80;;;;;;6184177;23;20155;-68
2023/06/09 07:22:50;;;;;;;5.93;5.53;;;24.90;52.80;;;;;;6182306;23;20425;-68
2023/06/09 07:25:16;;;;;;;6.60;6.10;;;24.90;52.80;;;;;;6184761;23;20202;-67
2023/06/09 07:27:42;;;;;;;5.50;5.10;;;24.90;52.80;;;;;;6185297;23;20808;-68
2023/06/09 07:30:08;;;;;;;6.17;5.70;;;24.90;52.80;;;;;;6182782;23;20782;-68
2023/06/09 07:32:34;;;;;;;6.27;5.67;;;25.00;52.90;;;;;;6185152;23;20144;-69
2023/06/09 07:35:00;;;;;;;6.37;5.87;;;25.00;52.90;;;;;;6158802;23;20465;-68
2023/06/09 07:37:25;;;;;;;6.20;5.60;;;25.00;52.90;;;;;;6185212;23;20234;-68
2023/06/09 07:39:51;;;;;;;6.50;5.87;;;25.00;52.90;;;;;;6185903;23;20614;-68
2023/06/09 07:42:16;;;;;;;5.30;4.90;;;25.00;52.90;;;;;;6185806;23;20495;-67
2023/06/09 07:44:42;;;;;;;6.30;5.70;;;25.00;52.90;;;;;;6185433;23;20175;-68
2023/06/09 07:47:08;;;;;;;5.63;5.17;;;25.00;52.90;;;;;;6185388;23;20186;-68
2023/06/09 07:49:33;;;;;;;5.90;5.40;;;25.00;52.90;;;;;;6185301;23;20148;-68
2023/06/09 07:51:59;;;;;;;6.57;5.97;;;25.00;52.90;;;;;;6185300;23;20156;-66
2023/06/09 07:54:25;;;;;;;7.57;5.80;;;25.00;52.90;;;;;;6185321;23;20570;-68
2023/06/09 07:56:50;;;;;;;5.73;5.33;;;25.00;52.90;;;;;;6185293;23;20167;-68
2023/06/09 07:59:19;;;;;;;5.97;5.47;;;25.00;52.90;;;;;;6185681;23;20151;-68
2023/06/09 08:01:45;;;;;;;5.57;5.17;;;25.10;52.90;;;;;;6185499;23;20163;-68
2023/06/09 08:04:11;;;;;;;6.27;5.77;;;25.10;52.90;;;;;;6185373;23;20398;-69
2023/06/09 08:06:37;;;;;;;5.77;5.27;;;25.10;52.90;;;;;;6185375;23;20843;-67
2023/06/09 08:09:03;;;;;;;6.10;5.60;;;25.10;52.90;;;;;;6185179;23;20653;-68
2023/06/09 08:11:29;;;;;;;6.10;5.50;;;25.10;52.90;;;;;;6185087;23;20367;-68
2023/06/09 08:13:54;;;;;;;5.87;5.40;;;25.10;52.90;;;;;;6185074;23;20144;-67
2023/06/09 08:16:20;;;;;;;5.47;5.07;;;25.10;52.90;;;;;;6185181;23;20599;-67
2023/06/09 08:18:46;;;;;;;6.43;5.93;;;25.10;52.90;;;;;;6184991;23;20151;-67
2023/06/09 08:21:11;;;;;;;6.10;5.60;;;25.10;52.90;;;;;;6185077;23;20156;-67
2023/06/09 08:23:37;;;;;;;6.03;5.43;;;25.10;52.90;;;;;;6185075;23;20490;-67
2023/06/09 08:26:02;;;;;;;6.50;5.90;;;25.10;52.90;;;;;;6185004;23;20183;-67
2023/06/09 08:28:28;;;;;;;7.43;5.70;;;25.10;52.90;;;;;;6185104;23;20176;-68
2023/06/09 08:30:55;;;;;;;5.40;5.00;;;25.10;52.90;;;;;;6184551;23;20148;-68
2023/06/09 08:33:21;;;;;;;5.50;5.00;;;25.20;53.00;;;;;;6184945;23;20155;-68
2023/06/09 08:35:46;;;;;;;5.40;5.00;;;25.10;52.90;;;;;;6158440;23;20429;-68
2023/06/09 08:38:12;;;;;;;5.53;5.13;;;25.20;52.90;;;;;;6184241;23;20376;-68
2023/06/09 08:40:38;;;;;;;5.90;5.40;;;25.10;52.90;;;;;;6185019;23;20175;-69
2023/06/09 08:43:06;;;;;;;5.57;5.17;;;25.20;53.00;;;;;;6185180;23;20487;-68
2023/06/09 08:45:35;;;;;;;5.90;5.40;;;25.20;52.90;;;;;;6185047;23;20878;-68
2023/06/09 08:48:03;;;;;;;6.10;5.60;;;25.20;53.00;;;;;;6184868;23;20450;-68
2023/06/09 08:50:30;;;;;;;5.40;4.90;;;25.20;53.00;;;;;;6184648;23;20917;-68
2023/06/09 08:52:56;;;;;;;6.27;5.67;;;25.20;53.00;;;;;;6184697;23;20371;-68
2023/06/09 08:55:22;;;;;;;6.03;5.53;;;25.20;52.90;;;;;;6182967;23;20887;-68
2023/06/09 08:57:49;;;;;;;5.47;5.00;;;25.20;52.90;;;;;;6184684;23;20433;-68
2023/06/09 09:00:15;;;;;;;6.00;5.47;;;25.20;52.90;;;;;;6184660;23;20695;-68
2023/06/09 09:02:43;;;;;;;6.87;5.10;;;25.20;52.90;;;;;;6184571;23;20462;-68
2023/06/09 09:05:09;;;;;;;5.10;4.70;;;25.20;52.90;;;;;;6184515;23;20477;-68
2023/06/09 09:07:35;;;;;;;5.77;5.30;;;25.20;52.90;;;;;;6184520;23;20502;-68
2023/06/09 09:10:01;;;;;;;6.00;5.50;;;25.20;52.90;;;;;;6184586;23;20399;-68
2023/06/09 09:12:27;;;;;;;5.00;4.57;;;25.30;53.00;;;;;;6184643;23;20148;-68
2023/06/09 09:14:53;;;;;;;5.40;5.00;;;25.20;52.90;;;;;;6184832;23;20259;-69
2023/06/09 09:17:18;;;;;;;5.50;5.10;;;25.30;53.00;;;;;;6184412;23;20155;-68
2023/06/09 09:19:47;;;;;;;5.73;5.23;;;25.20;52.90;;;;;;6184321;23;20371;-69
2023/06/09 09:22:13;;;;;;;5.23;4.83;;;25.20;52.90;;;;;;6184353;23;20160;-69
2023/06/09 09:24:45;;;;;;;6.30;5.40;;;25.20;52.90;;;;;;6184284;23;20494;-68
2023/06/09 09:27:18;;;;;;;5.80;5.40;;;25.30;53.00;;;;;;6184149;23;20211;-67
2023/06/09 09:29:45;;;;;;;6.63;5.57;;;25.30;53.00;;;;;;6184215;23;20379;-69
2023/06/09 09:32:10;;;;;;;5.70;5.10;;;25.30;53.00;;;;;;6157897;23;20854;-69
2023/06/09 09:34:40;;;;;;;6.00;5.47;;;25.30;53.00;;;;;;6184088;23;20398;-68
2023/06/09 09:37:16;;;;;;;6.17;5.60;;;25.30;53.00;;;;;;6158159;23;20939;-68
2023/06/09 09:39:52;;;;;;;6.00;5.50;;;25.30;52.90;;;;;;6184285;23;20374;-68
2023/06/09 09:42:18;;;;;;;6.00;4.93;;;25.30;52.90;;;;;;6184159;23;20742;-69
2023/06/09 09:44:50;;;;;;;6.40;5.60;;;25.30;52.90;;;;;;6184573;23;20956;-68
2023/06/09 09:47:18;;;;;;;6.17;5.67;;;25.30;53.00;;;;;;6184151;23;20889;-69
2023/06/09 09:49:52;;;;;;;5.70;5.20;;;25.30;52.90;;;;;;6184212;23;20367;-68
2023/06/09 09:52:29;;;;;;;5.60;5.10;;;25.30;52.90;;;;;;6184264;23;20401;-69
2023/06/09 09:54:58;;;;;;;5.30;4.90;;;25.30;52.90;;;;;;6183997;23;20429;-68
2023/06/09 09:57:30;;;;;;;5.63;5.13;;;25.30;53.00;;;;;;6184398;23;20437;-68
2023/06/09 09:59:58;;;;;;;6.03;5.53;;;25.30;52.90;;;;;;6184264;23;20363;-69
2023/06/09 10:02:25;;;;;;;6.87;6.27;;;25.30;53.00;;;;;;6157844;23;20387;-68
2023/06/09 10:04:53;;;;;;;5.30;4.90;;;25.30;52.90;;;;;;6184317;23;20917;-68
2023/06/09 10:07:23;;;;;;;5.50;5.10;;;25.30;52.90;;;;;;6184108;23;20906;-68
2023/06/09 10:09:53;;;;;;;5.53;5.03;;;25.30;52.90;;;;;;6183501;23;20442;-68
2023/06/09 10:12:20;;;;;;;5.23;4.83;;;25.30;52.90;;;;;;6183417;23;20454;-68
2023/06/09 10:14:48;;;;;;;5.90;5.40;;;25.30;52.80;;;;;;6157629;23;20411;-69
2023/06/09 10:17:15;;;;;;;6.23;5.67;;;25.30;52.80;;;;;;6184236;23;20437;-69
2023/06/09 10:19:42;;;;;;;5.60;5.10;;;25.30;52.90;;;;;;6184415;23;20383;-69
2023/06/09 10:22:09;;;;;;;5.53;5.03;;;25.30;52.90;;;;;;6183978;23;20375;-70
2023/06/09 10:24:36;;;;;;;6.07;5.67;;;25.30;52.90;;;;;;6184019;23;20426;-70
2023/06/09 10:27:03;;;;;;;5.60;5.20;;;25.30;52.90;;;;;;6183923;23;20450;-69
2023/06/09 10:29:29;;;;;;;6.40;5.90;;;25.30;52.90;;;;;;6184010;23;20371;-69
2023/06/09 10:31:56;;;;;;;5.67;5.10;;;25.30;52.90;;;;;;6184008;23;20390;-69
2023/06/09 10:34:23;;;;;;;5.80;5.30;;;25.30;52.90;;;;;;6157441;23;20604;-69
2023/06/09 10:36:53;;;;;;;6.37;5.77;;;25.30;52.90;;;;;;6183901;23;20379;-69
2023/06/09 10:39:22;;;;;;;5.90;5.03;;;25.30;52.90;;;;;;6184341;23;20356;-69
2023/06/09 10:42:25;;;;;;;5.43;5.03;;;25.30;52.90;;;;;;6183926;23;20407;-69
2023/06/09 10:45:03;;;;;;;6.80;6.30;;;25.30;52.90;;;;;;6156595;23;20445;-69
2023/06/09 10:47:46;;;;;;;5.63;5.13;;;25.30;52.90;;;;;;6183940;23;20407;-69
2023/06/09 10:50:31;;;;;;;6.23;5.73;;;25.30;52.90;;;;;;6184030;23;20377;-69
2023/06/09 10:52:58;;;;;;;5.97;5.47;;;25.30;53.00;;;;;;6184007;23;20446;-69
2023/06/09 10:55:27;;;;;;;5.87;5.40;;;25.30;53.00;;;;;;6184770;23;20414;-69
2023/06/09 10:57:55;;;;;;;6.30;5.80;;;25.30;53.00;;;;;;6159501;23;20385;-69
2023/06/09 11:00:21;;;;;;;6.50;5.90;;;25.30;53.00;;;;;;6185760;23;20920;-69
2023/06/09 11:03:16;;;;;;;6.03;5.53;;;25.40;53.00;;;;;;6185789;23;20777;-69
2023/06/09 11:05:44;;;;;;;5.60;5.20;;;25.40;53.00;;;;;;6152656;23;20461;-68
2023/06/09 11:08:10;;;;;;;6.57;5.90;;;25.30;53.00;;;;;;6185618;23;20422;-70
2023/06/09 11:10:37;;;;;;;5.07;4.67;;;25.30;52.90;;;;;;6185642;23;20428;-68
2023/06/09 11:13:23;;;;;;;5.63;5.23;;;25.40;53.00;;;;;;6185735;23;20206;-68
2023/06/09 11:15:57;;;;;;;6.47;5.97;;;25.40;53.00;;;;;;6185432;23;20395;-68
2023/06/09 11:18:23;;;;;;;6.03;5.43;;;25.30;53.00;;;;;;6184735;23;20384;-68
2023/06/09 11:21:08;;;;;;;6.03;5.63;;;25.40;53.00;;;;;;6185340;23;20371;-68
2023/06/09 11:23:56;;;;;;;6.07;5.57;;;25.40;53.00;;;;;;6156852;23;20379;-69
2023/06/09 11:26:23;;;;;;;6.10;5.50;;;25.40;53.00;;;;;;6183217;23;20370;-70
2023/06/09 11:28:49;;;;;;;6.37;5.77;;;25.30;53.00;;;;;;6183034;23;20442;-70
2023/06/09 11:31:15;;;;;;;5.93;5.43;;;25.40;53.00;;;;;;6183086;23;20884;-68
2023/06/09 11:33:49;;;;;;;5.63;5.23;;;25.40;53.00;;;;;;6184757;23;20152;-68
2023/06/09 11:36:29;;;;;;;5.70;5.30;;;25.40;52.90;;;;;;6185348;23;20378;-69
2023/06/09 11:39:03;;;;;;;6.53;5.83;;;25.40;52.90;;;;;;6185686;23;20793;-68
2023/06/09 11:41:29;;;;;;;6.30;5.80;;;25.40;52.90;;;;;;6158904;23;20379;-69
2023/06/09 11:43:56;;;;;;;6.03;5.50;;;25.40;52.90;;;;;;6185398;23;20454;-69
2023/06/09 11:46:22;;;;;;;5.83;5.33;;;25.40;52.90;;;;;;6185034;23;20948;-69
2023/06/09 11:49:01;;;;;;;11.13;7.17;;;25.40;52.90;;;;;;6185176;23;20415;-69
2023/06/09 11:51:27;;;;;;;11.30;6.93;;;25.40;52.90;;;;;;6184888;23;20371;-69
2023/06/09 11:53:52;;;;;;;10.77;8.80;;;25.40;52.90;;;;;;6184927;23;20372;-69
2023/06/09 11:56:18;;;;;;;9.80;8.80;;;25.40;52.90;;;;;;6185166;23;20164;-68
2023/06/09 11:58:44;;;;;;;11.10;9.40;;;25.40;52.90;;;;;;6185123;23;20195;-67
2023/06/09 12:01:10;;;;;;;11.00;9.07;;;25.40;52.90;;;;;;6184927;23;20155;-69
2023/06/09 12:03:36;;;;;;;12.13;9.40;;;25.40;52.90;;;;;;6184853;23;20147;-69
2023/06/09 12:06:02;;;;;;;10.43;9.37;;;25.40;52.90;;;;;;6184666;23;20395;-69
2023/06/09 12:08:28;;;;;;;11.27;10.17;;;25.40;52.80;;;;;;6184804;23;20478;-69
2023/06/09 12:10:53;;;;;;;13.47;10.03;;;25.40;52.80;;;;;;6184854;23;20226;-69
2023/06/09 12:13:19;;;;;;;11.50;10.43;;;25.40;52.80;;;;;;6184820;23;20154;-69
2023/06/09 12:15:52;;;;;;;11.23;9.47;;;25.40;52.70;;;;;;6184694;23;20641;-69
2023/06/09 12:18:17;;;;;;;10.23;8.63;;;25.40;52.70;;;;;;6184809;23;20143;-69
2023/06/09 12:20:45;;;;;;;10.63;9.57;;;25.40;52.70;;;;;;6184603;23;20371;-70
2023/06/09 12:23:13;;;;;;;11.50;9.77;;;25.40;52.70;;;;;;6184648;23;20152;-70
2023/06/09 12:25:47;;;;;;;11.87;8.70;;;25.40;52.70;;;;;;6158220;23;20441;-70
2023/06/09 12:28:26;;;;;;;9.83;8.83;;;25.40;52.70;;;;;;6184418;23;20466;-69
2023/06/09 12:30:53;;;;;;;11.90;10.30;;;25.40;52.70;;;;;;6157978;23;20474;-70
2023/06/09 12:33:24;;;;;;;11.07;9.03;;;25.40;52.70;;;;;;6184502;23;20371;-70
2023/06/09 12:35:51;;;;;;;10.67;8.97;;;25.40;52.70;;;;;;6158087;23;20461;-70
2023/06/09 12:38:19;;;;;;;9.50;8.50;;;25.40;52.70;;;;;;6184919;23;20375;-69
2023/06/09 12:41:12;;;;;;;8.97;7.90;;;25.40;52.60;;;;;;6184536;23;20374;-69
2023/06/09 12:43:48;;;;;;;10.70;8.17;;;25.40;52.60;;;;;;6183896;23;20410;-69
2023/06/09 12:46:19;;;;;;;10.83;8.43;;;25.30;52.60;;;;;;6183872;23;20885;-69
2023/06/09 12:49:17;;;;;;;8.97;7.87;;;25.40;52.70;;;;;;6156720;23;20438;-69
2023/06/09 12:51:45;;;;;;;12.53;7.70;;;25.30;52.60;;;;;;6132204;23;20892;-69